DW7857 Weather Reports


time (UTC)temp
C
wind
direction
speed
KPH
gust
KPH
rain 1hr
cm
rain 24hr
cm
rain mn
cm
humidity
%
barometer
mb
20201031162505 11 205 6.4 16.1 0.00 0.00 0.00 68 1010.9
20201031162021 11 193 6.4 17.7 0.00 0.00 0.00 66 1010.7
20201031161516 11 186 6.4 17.7 0.00 0.00 0.00 66 1010.5
20201031161022 12 192 6.4 17.7 0.00 0.00 0.00 65 1010.5
20201031160511 12 225 4.8 9.7 0.00 0.00 0.00 65 1010.6
20201031160024 12 239 6.4 12.9 0.00 0.00 0.00 64 1010.8
20201031155508 12 234 6.4 12.9 0.00 0.00 0.00 64 1010.9
20201031155031 12 248 6.4 16.1 0.00 0.00 0.00 65 1010.8
20201031154544 12 274 6.4 16.1 0.00 0.00 0.00 66 1010.7
20201031154009 12 315 6.4 16.1 0.00 0.00 0.00 66 1010.2
20201031153512 12 260 6.4 17.7 0.00 0.00 0.00 65 1010.5
20201031153020 12 269 8.0 17.7 0.00 0.00 0.00 61 1010.4
20201031152513 12 315 8.0 14.5 0.00 0.00 0.00 61 1010.6
20201031152006 12 218 8.0 17.7 0.00 0.00 0.00 60 1010.2
20201031151515 12 226 11.3 19.3 0.00 0.00 0.00 60 1010.3
20201031151005 13 227 9.7 20.9 0.00 0.00 0.00 60 1009.9
20201031150506 13 223 8.0 22.5 0.00 0.00 0.00 61 1010.2
20201031150024 13 241 9.7 22.5 0.00 0.00 0.00 61 1010.3
20201031145506 13 223 8.0 16.1 0.00 0.00 0.00 62 1010.1
20201031145008 13 212 8.0 17.7 0.00 0.00 0.00 62 1010.0
20201031144539 13 234 6.4 17.7 0.00 0.00 0.00 62 1009.9
20201031144009 13 171 6.4 17.7 0.00 0.00 0.00 61 1009.3
20201031143534 13 189 6.4 17.7 0.00 0.00 0.00 61 1009.6
20201031143021 13 199 6.4 16.1 0.00 0.00 0.00 60 1009.7
20201031142528 13 225 8.0 16.1 0.00 0.00 0.00 58 1009.5
20201031142009 13 235 8.0 20.9 0.00 0.00 0.00 59 1009.1
20201031141514 13 247 8.0 20.9 0.00 0.00 0.00 59 1008.7
20201031141045 13 255 9.7 20.9 0.00 0.00 0.00 59 1008.9
20201031140508 13 248 9.7 17.7 0.00 0.00 0.00 59 1008.5
20201031140024 13 255 9.7 17.7 0.00 0.00 0.00 58 1008.6
20201031135510 13 242 9.7 17.7 0.00 0.00 0.00 57 1008.3
20201031135030 13 285 11.3 24.1 0.00 0.00 0.00 57 1008.1
20201031134523 13 281 11.3 24.1 0.00 0.00 0.00 56 1008.2
20201031134019 13 253 9.7 24.1 0.00 0.00 0.00 57 1008.3
20201031133509 13 279 9.7 24.1 0.00 0.00 0.00 60 1008.3
20201031133026 13 289 11.3 24.1 0.00 0.00 0.00 61 1008.4
20201031132510 13 251 12.9 37.0 0.00 0.00 0.00 61 1008.7
20201031132022 13 225 12.9 37.0 0.00 0.00 0.00 62 1008.5
20201031131532 13 249 9.7 37.0 0.00 0.00 0.00 62 1008.4
20201031131012 14 206 8.0 14.5 0.00 0.00 0.00 64 1008.1
20201031130512 14 270 8.0 20.9 0.00 0.00 0.00 66 1007.6
20201031130024 13 252 9.7 24.1 0.00 0.00 0.00 66 1007.5
20201031125525 13 243 11.3 27.4 0.00 0.00 0.00 65 1007.3
20201031125032 13 270 12.9 27.4 0.00 0.00 0.00 66 1007.3
20201031124531 13 265 9.7 25.7 0.00 0.00 0.00 66 1007.7
20201031124026 13 230 9.7 24.1 0.00 0.00 0.00 68 1007.5
20201031123510 13 251 11.3 25.7 0.00 0.00 0.00 69 1007.3
20201031123022 13 271 11.3 25.7 0.00 0.00 0.00 71 1007.1
20201031122529 13 266 9.7 24.1 0.00 0.00 0.00 72 1007.4
20201031122022 12 288 9.7 20.9 0.00 0.00 0.00 72 1007.4
20201031121517 12 336 9.7 20.9 0.00 0.00 0.00 73 1007.1
20201031121009 12 306 11.3 27.4 0.00 0.00 0.00 75 1007.2
20201031120515 12 291 11.3 27.4 0.00 0.00 0.00 75 1007.1
20201031120023 13 302 9.7 20.9 0.00 0.00 0.00 76 1007.3
20201031115510 13 294 9.7 20.9 0.00 0.00 0.00 77 1006.6
20201031115009 13 294 8.0 17.7 0.00 0.00 0.00 80 1006.2
20201031114517 13 265 8.0 16.1 0.00 0.00 0.00 81 1006.4
20201031114008 13 332 9.7 19.3 0.00 0.00 0.00 82 1006.5
20201031113510 12 14 12.9 27.4 0.00 0.00 0.00 83 1006.1
20201031113025 12 1 12.9 30.6 0.00 0.00 0.00 85 1006.4
20201031112509 13 314 11.3 30.6 0.00 0.00 0.00 89 1005.9
20201031112025 14 228 9.7 24.1 0.00 0.00 0.00 91 1005.9
20201031111518 14 186 9.7 24.1 0.00 0.00 0.00 91 1005.3
20201031111010 14 193 9.7 24.1 0.00 0.00 0.00 91 1005.0
20201031110512 14 177 11.3 24.1 0.00 0.00 0.00 91 1005.0
20201031110020 14 185 12.9 24.1 0.00 0.00 0.00 91 1004.6
20201031105526 14 184 14.5 27.4 0.00 0.00 0.00 91 1005.0
20201031105006 14 183 16.1 27.4 0.00 0.00 0.00 92 1005.0
20201031104525 14 193 17.7 37.0 0.00 0.00 0.00 92 1005.3
20201031104006 14 170 20.9 37.0 0.00 0.00 0.00 92 1004.6
20201031103511 14 201 20.9 40.2 0.00 0.00 0.00 92 1005.0
20201031103010 14 201 19.3 40.2 0.00 0.00 0.00 92 1005.0
20201031102529 14 178 19.3 41.8 0.00 0.00 0.00 92 1004.9
20201031102008 14 184 22.5 59.5 0.00 0.00 0.00 92 1005.1
20201031101520 14 178 20.9 59.5 0.00 0.00 0.00 92 1005.2
20201031101016 14 191 17.7 46.7 0.00 0.00 0.00 92 1005.1
20201031100530 14 199 19.3 46.7 0.00 0.00 0.00 92 1004.7
20201031100023 14 204 19.3 46.7 0.00 0.00 0.00 92 1004.7
20201031095504 13 211 17.7 37.0 0.00 0.00 0.00 91 1005.0
20201031095017 13 196 19.3 37.0 0.00 0.00 0.00 91 1005.5
20201031094519 13 191 20.9 41.8 0.00 0.00 0.00 91 1005.1
20201031094040 13 194 20.9 41.8 0.00 0.00 0.00 91 1005.1
20201031093524 13 201 20.9 41.8 0.00 0.00 0.00 91 1004.9
20201031093020 13 198 20.9 37.0 0.00 0.00 0.00 91 1004.8
20201031092511 13 179 19.3 37.0 0.00 0.00 0.00 91 1005.0
20201031092007 13 167 17.7 37.0 0.00 0.00 0.00 91 1005.1
20201031091522 13 167 19.3 37.0 0.00 0.00 0.00 90 1005.4
20201031091008 13 206 17.7 37.0 0.00 0.00 0.00 90 1005.6
20201031090512 13 206 17.7 43.5 0.00 0.00 0.00 90 1005.8
20201031090032 13 185 19.3 43.5 0.00 0.00 0.00 90 1005.7
20201031085510 13 177 17.7 33.8 0.00 0.00 0.00 90 1005.9
20201031085008 13 192 16.1 30.6 0.00 0.00 0.00 90 1006.2
20201031084522 13 220 16.1 27.4 0.00 0.00 0.00 89 1005.9
20201031084006 13 196 17.7 38.6 0.00 0.00 0.00 89 1006.1
20201031083517 13 184 16.1 38.6 0.00 0.00 0.00 89 1006.5
20201031083023 13 195 14.5 33.8 0.00 0.00 0.00 88 1006.0
20201031082512 13 192 14.5 33.8 0.00 0.00 0.00 88 1006.5
20201031082022 13 173 17.7 35.4 0.00 0.00 0.00 88 1006.5
20201031081518 13 173 17.7 35.4 0.00 0.00 0.00 89 1006.5
20201031081008 13 205 17.7 30.6 0.00 0.00 0.00 89 1006.6
20201031080516 13 191 17.7 27.4 0.00 0.00 0.00 89 1006.7
20201031080019 13 201 16.1 29.0 0.00 0.00 0.00 90 1006.9
20201031075519 13 224 16.1 33.8 0.00 0.00 0.00 90 1007.1
20201031075012 13 202 16.1 33.8 0.00 0.00 0.00 90 1007.2
20201031074519 13 158 14.5 30.6 0.00 0.00 0.00 90 1007.0
20201031074025 13 209 12.9 38.6 0.00 0.00 0.00 90 1007.3
20201031073515 13 201 14.5 41.8 0.00 0.00 0.00 90 1007.2
20201031073022 13 195 14.5 41.8 0.00 0.00 0.00 90 1007.6
20201031072516 13 201 17.7 32.2 0.00 0.00 0.00 90 1007.8
20201031072021 13 206 17.7 32.2 0.00 0.00 0.00 91 1008.0
20201031071510 13 234 14.5 35.4 0.00 0.00 0.00 91 1008.1
20201031071019 13 228 12.9 35.4 0.00 0.00 0.00 90 1008.2
20201031070511 13 210 12.9 30.6 0.00 0.00 0.00 90 1008.3
20201031070019 13 204 12.9 30.6 0.00 0.00 0.00 90 1008.4
20201031065526 13 190 12.9 33.8 0.00 0.00 0.00 90 1008.5
20201031065012 13 202 12.9 33.8 0.00 0.00 0.00 90 1008.7
20201031064523 13 183 12.9 30.6 0.00 0.00 0.00 90 1009.1
20201031064006 13 176 14.5 32.2 0.00 0.00 0.00 90 1008.8
20201031063509 13 171 16.1 32.2 0.00 0.00 0.00 90 1009.0
20201031063020 13 173 16.1 29.0 0.00 0.00 0.00 90 1009.1
20201031062510 13 202 12.9 29.0 0.00 0.00 0.00 90 1009.0
20201031062006 13 198 12.9 27.4 0.00 0.00 0.00 90 1009.3
20201031061517 13 197 12.9 27.4 0.00 0.00 0.00 90 1009.0
20201031061010 13 153 12.9 27.4 0.00 0.00 0.00 90 1009.2
20201031060511 13 140 12.9 27.4 0.00 0.00 0.00 90 1009.2
20201031060021 13 164 14.5 32.2 0.00 0.00 0.00 90 1009.4
20201031055513 13 163 16.1 32.2 0.00 0.00 0.00 90 1009.5
20201031055022 13 154 14.5 29.0 0.00 0.00 0.00 90 1009.5
20201031054516 13 156 16.1 33.8 0.00 0.00 0.00 90 1009.6
20201031054010 13 172 17.7 33.8 0.00 0.00 0.00 90 1009.8
20201031053525 13 188 16.1 33.8 0.00 0.00 0.00 90 1010.0
20201031053025 13 178 12.9 27.4 0.00 0.00 0.00 90 1010.2
20201031052526 13 151 12.9 27.4 0.00 0.00 0.00 90 1010.2
20201031052018 13 198 14.5 27.4 0.00 0.00 0.00 90 1010.2
20201031051517 13 226 14.5 33.8 0.00 0.00 0.00 90 1010.4
20201031051020 13 243 14.5 33.8 0.00 0.00 0.00 90 1010.7
20201031050514 13 237 14.5 29.0 0.00 0.00 0.00 90 1011.1
20201031050019 13 178 16.1 27.4 0.00 0.00 0.00 90 1010.8
20201031045521 13 187 14.5 27.4 0.00 0.00 0.00 90 1010.9
20201031045010 13 204 14.5 33.8 0.00 0.00 0.00 90 1011.0
20201031044520 13 190 17.7 33.8 0.00 0.00 0.00 90 1011.2
20201031044026 13 158 16.1 33.8 0.00 0.00 0.00 90 1011.2
20201031043529 13 173 12.9 27.4 0.00 0.00 0.00 90 1011.3
20201031043029 13 176 11.3 30.6 0.00 0.00 0.00 90 1011.3
20201031042511 13 210 12.9 30.6 0.00 0.00 0.00 89 1011.4
20201031042011 13 227 14.5 30.6 0.00 0.00 0.00 89 1011.7
20201031041522 13 215 14.5 27.4 0.00 0.00 0.00 88 1011.8
20201031041006 13 189 16.1 29.0 0.00 0.00 0.00 88 1011.9
20201031040523 13 164 16.1 29.0 0.00 0.00 0.00 88 1011.9
20201031040044 13 155 12.9 27.4 0.00 0.00 0.00 88 1012.1
20201031035523 13 181 12.9 27.4 0.00 0.00 0.00 88 1012.2
20201031035026 13 223 11.3 27.4 0.00 0.00 0.00 88 1012.5
20201031034519 13 222 8.0 22.5 0.00 0.00 0.00 88 1012.6
20201031034020 13 189 9.7 22.5 0.00 0.00 0.00 88 1012.8
20201031033516 13 182 9.7 24.1 0.00 0.00 0.00 88 1013.1
20201031033024 13 202 9.7 24.1 0.00 0.00 0.00 88 1013.0
20201031032511 13 212 9.7 24.1 0.00 0.00 0.00 88 1013.2
20201031032031 13 189 11.3 25.7 0.00 0.00 0.00 89 1013.4
20201031031523 13 173 11.3 27.4 0.00 0.00 0.00 89 1013.5
20201031031029 13 129 12.9 29.0 0.00 0.00 0.00 89 1013.4
20201031030512 13 208 12.9 29.0 0.00 0.00 0.00 89 1013.7
20201031030025 13 201 14.5 29.0 0.00 0.00 0.00 89 1013.7
20201031025538 13 191 14.5 27.4 0.00 0.00 0.00 89 1013.9
20201031025015 13 194 12.9 33.8 0.00 0.00 0.00 90 1013.8
20201031024535 13 184 14.5 33.8 0.00 0.00 0.00 90 1014.3
20201031024047 13 177 16.1 33.8 0.00 0.00 0.00 90 1014.1
20201031023510 13 182 16.1 27.4 0.00 0.00 0.00 90 1014.0
20201031023034 13 194 17.7 30.6 0.00 0.00 0.00 91 1014.1
20201031022524 13 206 16.1 30.6 0.00 0.00 0.00 91 1014.4
20201031022007 13 206 14.5 27.4 0.00 0.00 0.00 91 1014.2
20201031021513 13 183 17.7 37.0 0.00 0.00 0.00 91 1014.3
20201031021007 13 182 17.7 37.0 0.00 0.00 0.00 91 1014.4
20201031020513 13 183 17.7 38.6 0.00 0.00 0.00 91 1014.8
20201031020011 13 187 20.9 38.6 0.00 0.00 0.00 91 1014.7
20201031015509 13 195 19.3 38.6 0.00 0.00 0.00 92 1014.6
20201031015017 13 184 17.7 30.6 0.00 0.00 0.00 92 1014.9
20201031014519 13 193 19.3 33.8 0.00 0.00 0.00 92 1014.7
20201031014011 13 197 17.7 33.8 0.00 0.00 0.00 92 1014.8
20201031013516 13 200 17.7 33.8 0.00 0.00 0.00 92 1014.7
20201031013027 13 207 17.7 32.2 0.00 0.00 0.00 92 1014.9
20201031012512 13 194 17.7 32.2 0.00 0.00 0.00 92 1014.8
20201031012016 13 188 19.3 35.4 0.00 0.00 0.00 92 1014.8
20201031011521 13 205 19.3 37.0 0.00 0.00 0.00 92 1015.1
20201031011010 13 191 17.7 37.0 0.00 0.00 0.00 92 1015.1
20201031010518 13 171 16.1 27.4 0.00 0.00 0.00 92 1015.1
20201031010019 13 188 19.3 35.4 0.00 0.00 0.00 92 1015.3
20201031005508 13 192 19.3 35.4 0.00 0.00 0.00 92 1015.3
20201031005011 13 174 19.3 37.0 0.00 0.00 0.00 92 1015.5
20201031004521 13 174 20.9 37.0 0.00 0.00 0.00 92 1015.5
20201031004012 13 179 19.3 37.0 0.00 0.00 0.00 92 1015.5
20201031003519 13 192 19.3 32.2 0.00 0.00 0.00 92 1015.5
20201031003022 13 202 19.3 33.8 0.00 0.00 0.00 92 1015.7
20201031002511 13 203 17.7 33.8 0.00 0.00 0.00 92 1015.7
20201031002019 13 191 17.7 33.8 0.00 0.00 0.00 92 1015.7
20201031001542 13 186 17.7 33.8 0.00 0.00 0.00 92 1015.7
20201031001006 13 172 16.1 30.6 0.00 0.00 0.00 92 1015.8
20201031000510 13 171 16.1 30.6 0.00 0.00 0.00 92 1015.9
20201031000027 13 183 19.3 35.4 0.00 0.00 0.00 92 1015.9
20201030235514 13 196 17.7 35.4 0.00 0.00 0.00 92 1016.0
20201030235008 13 199 17.7 30.6 0.00 0.00 0.00 92 1016.3
20201030234523 13 190 19.3 33.8 0.00 0.00 0.00 92 1016.2
20201030234005 13 181 17.7 35.4 0.00 0.00 0.00 92 1016.6
20201030233504 13 176 14.5 35.4 0.00 0.00 0.00 92 1016.7
20201030233026 13 191 12.9 29.0 0.00 0.00 0.00 92 1016.8
20201030232508 13 201 14.5 29.0 0.00 0.00 0.00 92 1017.0
20201030232027 13 185 17.7 29.0 0.00 0.00 0.00 92 1016.6
20201030231522 13 175 16.1 27.4 0.00 0.00 0.00 92 1017.0
20201030231012 13 188 14.5 27.4 0.00 0.00 0.00 92 1016.9
20201030230509 13 204 14.5 25.7 0.00 0.00 0.00 92 1016.7
20201030230024 13 196 14.5 27.4 0.00 0.00 0.00 92 1016.9
20201030225507 13 202 12.9 29.0 0.00 0.00 0.00 92 1017.2
20201030225005 13 199 12.9 29.0 0.00 0.00 0.00 92 1017.1
20201030224523 13 167 11.3 24.1 0.00 0.00 0.00 92 1017.1
20201030224011 13 204 11.3 24.1 0.00 0.00 0.00 92 1017.5
20201030223508 13 210 12.9 24.1 0.00 0.00 0.00 92 1017.6
20201030223019 13 200 12.9 24.1 0.00 0.00 0.00 92 1017.2
20201030222511 13 204 12.9 27.4 0.00 0.00 0.00 92 1017.6
20201030222022 13 209 11.3 27.4 0.00 0.00 0.00 92 1017.9
20201030221519 13 203 11.3 24.1 0.00 0.00 0.00 92 1017.8
20201030221010 13 211 11.3 24.1 0.00 0.00 0.00 92 1017.7
20201030220521 13 207 12.9 25.7 0.00 0.00 0.00 92 1017.8
20201030220022 13 204 11.3 25.7 0.00 0.00 0.00 92 1017.9
20201030215514 13 202 11.3 17.7 0.00 0.00 0.00 92 1017.8
20201030215006 13 190 12.9 27.4 0.00 0.00 0.00 92 1017.8
20201030214542 13 201 12.9 30.6 0.00 0.00 0.00 92 1017.8
20201030214010 13 215 12.9 30.6 0.00 0.00 0.00 92 1017.7
20201030213528 13 213 12.9 30.6 0.00 0.00 0.00 92 1017.8
20201030213023 13 206 12.9 25.7 0.00 0.00 0.00 92 1017.9
20201030212508 13 189 11.3 19.3 0.00 0.00 0.00 92 1018.0
20201030212023 13 213 12.9 29.0 0.00 0.00 0.00 92 1017.9
20201030211519 13 211 12.9 29.0 0.00 0.00 0.00 92 1018.2
20201030211017 13 198 14.5 32.2 0.00 0.00 0.00 92 1018.1
20201030210519 13 200 14.5 32.2 0.00 0.00 0.00 92 1018.3
20201030210021 13 202 12.9 32.2 0.00 0.00 0.00 92 1018.2
20201030205511 13 190 12.9 27.4 0.00 0.00 0.00 92 1018.2
20201030205010 13 189 14.5 27.4 0.00 0.00 0.00 92 1018.2
20201030204517 13 195 11.3 25.7 0.00 0.00 0.00 92 1018.2
20201030204025 13 203 11.3 24.1 0.00 0.00 0.00 92 1018.0
20201030203521 13 204 11.3 24.1 0.00 0.00 0.00 91 1018.2
20201030203032 13 193 11.3 22.5 0.00 0.00 0.00 91 1018.1
20201030202519 13 187 9.7 22.5 0.00 0.00 0.00 91 1018.0
20201030202021 13 193 9.7 22.5 0.00 0.00 0.00 91 1018.1
20201030201522 13 186 11.3 22.5 0.00 0.00 0.00 91 1018.3
20201030201007 13 185 9.7 16.1 0.00 0.00 0.00 91 1018.1
20201030200509 13 204 9.7 20.9 0.00 0.00 0.00 91 1018.3
20201030200020 13 212 9.7 20.9 0.00 0.00 0.00 91 1018.4
20201030195514 13 205 9.7 20.9 0.00 0.00 0.00 91 1018.4
20201030195008 13 193 9.7 19.3 0.00 0.00 0.00 91 1018.1
20201030194526 13 181 9.7 19.3 0.00 0.00 0.00 91 1018.5
20201030194019 13 181 11.3 20.9 0.00 0.00 0.00 91 1018.3
20201030193520 13 194 11.3 24.1 0.00 0.00 0.00 90 1018.5
20201030193023 13 192 9.7 24.1 0.00 0.00 0.00 90 1018.1
20201030192516 13 187 8.0 19.3 0.00 0.00 0.00 90 1018.3
20201030192011 13 200 6.4 14.5 0.00 0.00 0.00 90 1018.3
20201030191521 13 197 8.0 19.3 0.00 0.00 0.00 90 1018.2
20201030191022 13 191 8.0 19.3 0.00 0.00 0.00 90 1018.2
20201030190511 13 192 8.0 19.3 0.00 0.00 0.00 90 1018.1
20201030190022 13 188 11.3 22.5 0.00 0.00 0.00 90 1018.2
20201030185512 13 190 11.3 22.5 0.00 0.00 0.00 90 1018.3
20201030185023 13 205 11.3 22.5 0.00 0.00 0.00 90 1018.1
20201030184519 13 201 11.3 22.5 0.00 0.00 0.00 90 1018.2
20201030184010 13 202 9.7 17.7 0.00 0.00 0.00 90 1018.2
20201030183521 13 197 8.0 17.7 0.00 0.00 0.00 89 1018.1
20201030183020 14 178 8.0 19.3 0.00 0.00 0.00 89 1018.0
20201030182520 14 172 9.7 19.3 0.00 0.00 0.00 89 1018.3
20201030182022 14 188 9.7 24.1 0.00 0.00 0.00 89 1018.3
20201030181521 14 209 9.7 24.1 0.00 0.00 0.00 89 1018.5
20201030181022 14 211 8.0 24.1 0.00 0.00 0.00 89 1018.5
20201030180512 14 205 6.4 24.1 0.00 0.00 0.00 89 1018.4
20201030180031 14 192 6.4 16.1 0.00 0.00 0.00 89 1018.3
20201030175533 14 194 6.4 16.1 0.00 0.00 0.00 88 1018.3
20201030175023 14 188 4.8 16.1 0.00 0.00 0.00 88 1018.3
20201030174521 14 177 6.4 17.7 0.00 0.00 0.00 88 1018.2
20201030174008 14 200 6.4 17.7 0.00 0.00 0.00 88 1018.2
20201030173513 14 195 6.4 16.1 0.00 0.00 0.00 88 1018.4
20201030173028 14 174 6.4 14.5 0.00 0.00 0.00 88 1017.9
20201030172516 14 217 6.4 14.5 0.00 0.00 0.00 88 1018.1
20201030172009 14 195 6.4 14.5 0.00 0.00 0.00 88 1018.2
20201030171521 14 157 4.8 12.9 0.00 0.00 0.00 88 1018.1
20201030171011 14 200 4.8 17.7 0.00 0.00 0.00 88 1017.9
20201030170514 14 193 6.4 17.7 0.00 0.00 0.00 88 1018.0
20201030170034 14 182 6.4 16.1 0.00 0.00 0.00 88 1018.0
20201030165512 14 186 4.8 12.9 0.00 0.00 0.00 88 1017.9
20201030165011 14 211 4.8 14.5 0.00 0.00 0.00 88 1018.0
20201030164517 14 212 6.4 14.5 0.00 0.00 0.00 88 1017.9
20201030164027 14 206 6.4 14.5 0.00 0.00 0.00 88 1017.8
20201030163508 14 213 4.8 14.5 0.00 0.00 0.00 88 1018.0
20201030163020 14 232 6.4 14.5 0.00 0.00 0.00 88 1017.8